createdAt,value
2018-07-08T00:01:01.339Z,87.90
2018-07-08T00:03:28.687Z,88.20
2018-07-08T00:05:57.023Z,88.70
2018-07-08T00:08:24.287Z,90.70
2018-07-08T00:10:59.848Z,93.10
2018-07-08T00:13:27.199Z,93.80
2018-07-08T00:15:54.536Z,94.10
2018-07-08T00:18:22.910Z,92.60
2018-07-08T00:20:51.575Z,91.50
2018-07-08T00:23:19.313Z,91.50
2018-07-08T00:25:46.601Z,91.40
2018-07-08T00:28:13.906Z,91.40
2018-07-08T00:30:41.219Z,91.60
2018-07-08T00:33:08.863Z,91.70
2018-07-08T00:38:03.544Z,92.00
2018-07-08T00:40:31.001Z,92.00
2018-07-08T00:42:58.364Z,91.90
2018-07-08T00:45:25.752Z,91.70
2018-07-08T00:47:53.078Z,91.60
2018-07-08T00:50:20.391Z,91.90
2018-07-08T00:52:47.711Z,92.00
2018-07-08T00:55:15.001Z,92.30
2018-07-08T00:57:42.271Z,92.50
2018-07-08T01:00:21.160Z,92.10
2018-07-08T01:05:15.704Z,92.60
2018-07-08T01:07:42.959Z,92.60
2018-07-08T01:10:10.300Z,92.70
2018-07-08T01:12:37.623Z,92.80
2018-07-08T01:15:05.317Z,93.00
2018-07-08T01:17:32.759Z,93.20
2018-07-08T01:20:00.027Z,93.10
2018-07-08T01:22:27.352Z,93.20
2018-07-08T01:25:04.839Z,92.90
2018-07-08T01:27:32.148Z,93.40
2018-07-08T01:29:59.419Z,92.70
2018-07-08T01:32:26.735Z,93.40
2018-07-08T01:34:54.082Z,93.00
2018-07-08T01:37:21.391Z,92.40
2018-07-08T01:39:48.743Z,92.60
2018-07-08T01:42:16.014Z,92.90
2018-07-08T01:44:43.273Z,93.00
2018-07-08T01:47:10.539Z,94.40
2018-07-08T01:49:37.831Z,95.60
2018-07-08T01:52:05.162Z,96.00
2018-07-08T01:54:32.645Z,96.30
2018-07-08T01:56:59.951Z,96.70
2018-07-08T01:59:27.200Z,96.30
2018-07-08T02:04:21.770Z,96.00
2018-07-08T02:06:49.086Z,95.60
2018-07-08T02:09:16.403Z,95.40
2018-07-08T02:11:43.726Z,95.50
2018-07-08T02:14:11.172Z,95.50
2018-07-08T02:16:38.561Z,95.80
2018-07-08T02:21:33.295Z,96.20
2018-07-08T02:24:00.595Z,96.30
2018-07-08T02:26:27.925Z,96.30
2018-07-08T02:28:55.328Z,96.40
2018-07-08T02:31:22.654Z,96.50
2018-07-08T02:33:49.951Z,96.40
2018-07-08T02:38:44.747Z,96.20
2018-07-08T02:41:12.074Z,96.30
2018-07-08T02:43:39.402Z,96.20
2018-07-08T02:46:06.687Z,96.40
2018-07-08T02:48:34.052Z,96.40
2018-07-08T02:51:01.452Z,96.50
2018-07-08T02:53:28.743Z,96.50
2018-07-08T02:55:56.078Z,96.80
2018-07-08T02:58:23.351Z,96.00
2018-07-08T03:00:50.591Z,96.80
2018-07-08T03:03:18.114Z,96.90
2018-07-08T03:05:45.406Z,96.90
2018-07-08T03:08:12.883Z,96.90
2018-07-08T03:10:40.134Z,96.90
2018-07-08T03:13:07.415Z,96.90
2018-07-08T03:18:02.039Z,96.90
2018-07-08T03:20:29.327Z,97.00
2018-07-08T03:22:56.655Z,97.20
2018-07-08T03:25:23.967Z,97.30
2018-07-08T03:27:52.045Z,97.50
2018-07-08T03:30:19.375Z,97.60
2018-07-08T03:32:46.675Z,97.50
2018-07-08T03:35:14.092Z,97.40
2018-07-08T03:37:41.499Z,97.40
2018-07-08T03:40:08.810Z,97.00
2018-07-08T03:42:36.185Z,97.30
2018-07-08T03:45:03.530Z,97.20
2018-07-08T03:47:30.878Z,97.10
2018-07-08T03:49:58.162Z,97.10
2018-07-08T03:52:25.482Z,96.90
2018-07-08T03:54:52.902Z,97.10
2018-07-08T03:57:20.163Z,96.30
2018-07-08T03:59:47.443Z,96.70
2018-07-08T04:02:14.691Z,96.70
2018-07-08T04:04:41.983Z,96.70
2018-07-08T04:07:09.314Z,96.70
2018-07-08T04:09:36.632Z,96.40
2018-07-08T04:12:03.928Z,96.40
2018-07-08T04:14:31.175Z,96.00
2018-07-08T04:16:58.516Z,96.20
2018-07-08T04:19:26.138Z,96.30
2018-07-08T04:24:20.679Z,95.70
2018-07-08T04:26:48.022Z,95.50
2018-07-08T04:34:10.019Z,95.10
2018-07-08T04:36:37.341Z,95.00
2018-07-08T04:39:06.349Z,94.80
2018-07-08T04:41:33.641Z,94.80
2018-07-08T04:44:01.420Z,94.80
2018-07-08T04:46:28.755Z,94.70
2018-07-08T04:48:56.051Z,94.80
2018-07-08T04:51:23.355Z,94.60
2018-07-08T04:53:50.621Z,94.80
2018-07-08T04:56:17.871Z,94.90
2018-07-08T05:01:12.419Z,94.80
2018-07-08T05:06:07.032Z,94.50
2018-07-08T05:08:34.381Z,94.00
2018-07-08T05:11:01.657Z,93.90
2018-07-08T05:13:28.904Z,93.20
2018-07-08T05:15:56.215Z,93.20
2018-07-08T05:20:50.923Z,92.30
2018-07-08T05:23:18.246Z,92.00
2018-07-08T05:25:45.548Z,91.30
2018-07-08T05:28:12.902Z,88.90
2018-07-08T05:30:40.183Z,86.20
2018-07-08T05:33:07.861Z,85.30
2018-07-08T05:35:35.162Z,84.60
2018-07-08T05:38:02.679Z,81.70
2018-07-08T05:40:29.995Z,84.80
2018-07-08T05:47:51.825Z,82.10
2018-07-08T05:50:19.255Z,81.00
2018-07-08T05:52:46.434Z,76.00
2018-07-08T05:55:13.740Z,74.00
2018-07-08T05:57:41.056Z,75.40
2018-07-08T06:02:35.707Z,74.90
2018-07-08T06:05:03.067Z,72.90
2018-07-08T06:07:30.335Z,72.80
2018-07-08T06:09:57.580Z,72.60
2018-07-08T06:12:24.890Z,72.50
2018-07-08T06:14:52.276Z,72.30
2018-07-08T06:17:19.594Z,68.70
2018-07-08T06:24:41.396Z,67.80
2018-07-08T06:27:08.691Z,67.80
2018-07-08T06:29:35.982Z,66.80
2018-07-08T06:32:03.662Z,66.90
2018-07-08T06:34:30.964Z,66.70
2018-07-08T06:36:58.240Z,64.40
2018-07-08T06:39:25.529Z,64.80
2018-07-08T06:41:52.844Z,64.50
2018-07-08T06:44:20.249Z,62.60
2018-07-08T06:46:47.572Z,61.90
2018-07-08T06:49:14.947Z,60.00
2018-07-08T06:51:42.231Z,59.70
2018-07-08T06:54:12.023Z,59.50
2018-07-08T06:56:39.791Z,59.20
2018-07-08T07:01:34.436Z,59.20
2018-07-08T07:04:01.756Z,59.60
2018-07-08T07:06:29.071Z,59.90
2018-07-08T07:08:56.383Z,58.00
2018-07-08T07:11:23.675Z,58.50
2018-07-08T07:13:51.278Z,58.30
2018-07-08T07:16:18.617Z,58.60
2018-07-08T07:18:45.914Z,57.50
2018-07-08T07:21:13.224Z,56.10
2018-07-08T07:23:40.551Z,55.00
2018-07-08T07:31:02.619Z,52.40
2018-07-08T07:33:30.041Z,51.10
2018-07-08T07:35:57.307Z,52.50
2018-07-08T07:38:24.622Z,50.60
2018-07-08T07:40:51.941Z,49.90
2018-07-08T07:43:19.526Z,48.90
2018-07-08T07:45:46.864Z,48.90
2018-07-08T07:50:41.554Z,47.90
2018-07-08T07:53:08.888Z,47.20
2018-07-08T07:55:36.552Z,45.80
2018-07-08T07:58:03.991Z,44.80
2018-07-08T08:00:31.239Z,44.50
2018-07-08T08:02:58.527Z,44.10
2018-07-08T08:05:25.812Z,43.10
2018-07-08T08:07:53.185Z,41.90
2018-07-08T08:10:20.594Z,42.30
2018-07-08T08:12:47.842Z,41.50
2018-07-08T08:15:15.163Z,39.70
2018-07-08T08:17:42.473Z,38.00
2018-07-08T08:20:09.743Z,36.10
2018-07-08T08:22:37.075Z,33.90
2018-07-08T08:25:04.360Z,34.90
2018-07-08T08:27:31.695Z,33.50
2018-07-08T08:29:59.013Z,31.90
2018-07-08T08:32:26.280Z,31.80
2018-07-08T08:35:09.287Z,31.90
2018-07-08T08:37:41.879Z,31.20
2018-07-08T08:40:09.971Z,31.30
2018-07-08T08:42:37.335Z,31.40
2018-07-08T08:45:05.867Z,31.50
2018-07-08T08:47:33.491Z,30.90
2018-07-08T08:50:00.757Z,29.80
2018-07-08T08:52:28.093Z,29.80
2018-07-08T08:54:55.717Z,29.00
2018-07-08T08:57:22.985Z,27.80
2018-07-08T08:59:50.210Z,27.80
2018-07-08T09:02:17.559Z,27.30
2018-07-08T09:04:45.273Z,26.70
2018-07-08T09:07:13.959Z,27.30
2018-07-08T09:09:41.259Z,26.70
2018-07-08T09:12:09.105Z,26.10
2018-07-08T09:40:16.897Z,24.70
2018-07-08T09:42:44.188Z,25.30
2018-07-08T09:45:11.547Z,24.30
2018-07-08T09:50:06.030Z,23.90
2018-07-08T09:52:33.268Z,23.80
2018-07-08T09:55:00.539Z,23.20
2018-07-08T09:57:27.819Z,22.90
2018-07-08T10:02:22.317Z,23.50
2018-07-08T10:04:49.583Z,23.80
2018-07-08T10:09:44.056Z,22.90
2018-07-08T10:12:11.315Z,21.80
2018-07-08T10:14:38.680Z,22.60
2018-07-08T10:17:05.942Z,22.20
2018-07-08T10:19:33.278Z,22.10
2018-07-08T10:22:00.485Z,21.10
2018-07-08T10:24:27.722Z,19.50
2018-07-08T10:27:05.092Z,21.50
2018-07-08T10:31:59.562Z,20.60
2018-07-08T10:34:26.831Z,20.30
2018-07-08T10:36:54.128Z,20.50
2018-07-08T10:39:21.373Z,19.10
2018-07-08T10:41:48.628Z,36.60
2018-07-08T10:44:15.871Z,19.30
2018-07-08T10:46:43.176Z,18.10
2018-07-08T10:49:10.585Z,19.40
2018-07-08T10:51:37.901Z,19.20
2018-07-08T10:54:05.596Z,19.00
2018-07-08T10:56:32.992Z,18.80
2018-07-08T10:59:00.288Z,18.70
2018-07-08T11:01:27.695Z,19.70
2018-07-08T11:03:54.968Z,18.20
2018-07-08T11:06:22.203Z,17.80
2018-07-08T11:08:49.480Z,17.90
2018-07-08T11:11:16.715Z,18.80
2018-07-08T11:13:43.995Z,18.80
2018-07-08T11:16:11.282Z,18.20
2018-07-08T11:18:38.599Z,17.90
2018-07-08T11:21:05.923Z,18.60
2018-07-08T11:23:33.155Z,17.50
2018-07-08T11:26:00.406Z,17.30
2018-07-08T11:30:54.884Z,17.60
2018-07-08T11:33:22.195Z,16.10
2018-07-08T11:38:16.692Z,16.50
2018-07-08T11:40:43.975Z,16.80
2018-07-08T11:43:11.234Z,17.10
2018-07-08T11:45:38.491Z,17.10
2018-07-08T11:48:05.729Z,16.10
2018-07-08T11:50:33.051Z,14.80
2018-07-08T11:55:27.595Z,16.70
2018-07-08T11:57:54.781Z,16.00
2018-07-08T12:00:22.034Z,15.80
2018-07-08T12:02:49.271Z,15.70
2018-07-08T12:07:43.792Z,15.80
2018-07-08T12:10:11.058Z,15.80
2018-07-08T12:12:38.311Z,16.00
2018-07-08T12:15:05.572Z,16.20
2018-07-08T12:17:33.249Z,16.60
2018-07-08T12:20:00.507Z,19.10
2018-07-08T12:22:27.762Z,21.00
2018-07-08T12:24:55.106Z,20.90
2018-07-08T12:27:22.370Z,21.50
2018-07-08T12:29:49.647Z,23.00
2018-07-08T12:32:16.919Z,21.50
2018-07-08T12:34:44.163Z,21.60
2018-07-08T12:37:11.405Z,24.00
2018-07-08T12:42:05.903Z,24.70
2018-07-08T12:44:33.215Z,24.20
2018-07-08T12:47:00.416Z,24.60
2018-07-08T12:49:27.987Z,25.00
2018-07-08T12:51:55.882Z,25.20
2018-07-08T12:54:23.160Z,25.70
2018-07-08T12:56:50.460Z,25.30
2018-07-08T12:59:17.706Z,24.20
2018-07-08T13:04:12.185Z,26.60
2018-07-08T13:06:39.488Z,27.10
2018-07-08T13:09:06.716Z,26.20
2018-07-08T13:11:34.003Z,27.90
2018-07-08T13:14:01.260Z,25.80
2018-07-08T13:16:28.507Z,24.20
2018-07-08T13:18:55.748Z,24.80
2018-07-08T13:21:22.979Z,24.40
2018-07-08T13:23:50.215Z,25.60
2018-07-08T13:26:17.474Z,26.40
2018-07-08T13:28:44.786Z,25.40
2018-07-08T13:31:12.035Z,25.30
2018-07-08T13:33:39.278Z,23.80
2018-07-08T13:36:06.544Z,25.30
2018-07-08T13:38:33.790Z,24.70
2018-07-08T13:41:01.007Z,25.70
2018-07-08T13:43:28.242Z,26.10
2018-07-08T13:45:55.521Z,25.30
2018-07-08T13:48:22.809Z,26.00
2018-07-08T13:50:50.055Z,29.50
2018-07-08T13:53:17.315Z,93.20
2018-07-08T13:55:44.639Z,87.80
2018-07-08T13:58:11.778Z,67.20
2018-07-08T14:00:39.036Z,57.10
2018-07-08T14:03:06.351Z,49.30
2018-07-08T14:05:33.602Z,50.70
2018-07-08T14:08:00.907Z,47.00
2018-07-08T14:10:28.816Z,58.30
2018-07-08T14:12:56.214Z,58.10
2018-07-08T14:15:23.466Z,57.20
2018-07-08T14:17:50.704Z,52.60
2018-07-08T14:22:45.313Z,45.50
2018-07-08T14:25:12.560Z,54.90
2018-07-08T14:27:39.862Z,99.90
2018-07-08T14:32:34.382Z,95.30
2018-07-08T14:35:01.703Z,73.20
2018-07-08T14:37:28.956Z,62.30
2018-07-08T14:39:56.425Z,59.10
2018-07-08T14:42:23.683Z,51.80
2018-07-08T14:44:51.020Z,42.40
2018-07-08T14:47:18.311Z,68.40
2018-07-08T14:49:45.772Z,65.40
2018-07-08T14:52:13.071Z,45.60
2018-07-08T14:54:40.323Z,42.30
2018-07-08T14:57:07.563Z,38.60
2018-07-08T15:04:29.682Z,41.60
2018-07-08T15:06:56.940Z,38.60
2018-07-08T15:11:51.463Z,39.50
2018-07-08T15:14:18.759Z,40.40
2018-07-08T15:16:46.009Z,38.50
2018-07-08T15:19:13.253Z,37.10
2018-07-08T15:24:08.048Z,67.50
2018-07-08T15:26:35.307Z,55.40
2018-07-08T15:29:02.557Z,53.30
2018-07-08T15:31:29.779Z,53.60
2018-07-08T15:33:57.054Z,51.60
2018-07-08T15:38:51.599Z,51.90
2018-07-08T15:41:18.850Z,50.50
2018-07-08T15:46:13.485Z,49.00
2018-07-08T15:51:08.088Z,46.00
2018-07-08T15:53:35.350Z,47.10
2018-07-08T15:56:02.958Z,49.40
2018-07-08T15:58:30.805Z,47.70
2018-07-08T16:01:02.386Z,47.80
2018-07-08T16:03:29.739Z,49.50
2018-07-08T16:05:57.168Z,47.30
2018-07-08T16:08:25.469Z,48.20
2018-07-08T16:11:08.168Z,48.80
2018-07-08T16:13:35.998Z,48.50
2018-07-08T16:16:04.226Z,47.20
2018-07-08T16:18:31.953Z,48.50
2018-07-08T16:21:01.184Z,47.60
2018-07-08T16:23:30.035Z,47.60
2018-07-08T16:25:57.371Z,49.80
2018-07-08T16:28:24.595Z,48.50
2018-07-08T16:30:52.044Z,48.70
2018-07-08T16:34:13.832Z,48.60
2018-07-08T16:36:41.136Z,50.00
2018-07-08T16:39:10.344Z,48.40
2018-07-08T16:41:37.667Z,47.60
2018-07-08T16:44:05.210Z,49.40
2018-07-08T16:46:32.498Z,48.60
2018-07-08T16:49:04.988Z,47.60
2018-07-08T16:53:59.698Z,49.00
2018-07-08T16:56:27.052Z,48.70
2018-07-08T16:58:54.380Z,48.20
2018-07-08T17:01:21.704Z,52.00
2018-07-08T17:03:49.000Z,49.30
2018-07-08T17:06:16.906Z,50.40
2018-07-08T17:13:39.050Z,36.60
2018-07-08T17:16:06.412Z,39.50
2018-07-08T17:18:33.727Z,53.10
2018-07-08T17:21:00.989Z,53.20
2018-07-08T17:23:28.392Z,52.50
2018-07-08T17:25:55.580Z,53.70
2018-07-08T17:28:22.967Z,53.00
2018-07-08T17:30:52.456Z,53.90
2018-07-08T17:33:19.798Z,54.80
2018-07-08T17:35:47.274Z,52.40
2018-07-08T17:38:15.591Z,53.70
2018-07-08T17:40:42.908Z,53.60
2018-07-08T17:43:11.339Z,52.80
2018-07-08T17:45:38.647Z,52.70
2018-07-08T17:48:06.159Z,52.30
2018-07-08T17:53:01.129Z,51.70
2018-07-08T17:55:28.424Z,52.20
2018-07-08T17:57:55.816Z,52.70
2018-07-08T18:00:23.507Z,53.40
2018-07-08T18:02:50.835Z,52.80
2018-07-08T18:05:18.171Z,52.30
2018-07-08T18:08:00.328Z,53.10
2018-07-08T18:10:27.779Z,52.90
2018-07-08T18:12:56.041Z,53.80
2018-07-08T18:15:23.757Z,53.80
2018-07-08T18:17:57.865Z,53.60
2018-07-08T18:20:25.287Z,54.30
2018-07-08T18:22:52.625Z,35.60
2018-07-08T18:25:19.958Z,36.70
2018-07-08T18:27:47.331Z,36.00
2018-07-08T18:30:14.587Z,35.80
2018-07-08T18:32:41.847Z,35.90
2018-07-08T18:35:09.111Z,36.20
2018-07-08T18:37:37.268Z,35.70
2018-07-08T18:40:04.534Z,36.80
2018-07-08T18:42:31.859Z,36.30
2018-07-08T18:44:59.086Z,37.80
2018-07-08T18:49:54.063Z,41.20
2018-07-08T18:52:21.501Z,41.30
2018-07-08T18:54:48.827Z,41.00
2018-07-08T18:57:16.118Z,41.90
2018-07-08T18:59:43.470Z,42.10
2018-07-08T19:02:10.715Z,42.40
2018-07-08T19:04:37.976Z,42.80
2018-07-08T19:07:12.767Z,43.80
2018-07-08T19:12:08.447Z,60.90
2018-07-08T19:14:35.824Z,44.90
2018-07-08T19:17:03.099Z,62.70
2018-07-08T19:19:30.843Z,42.40
2018-07-08T19:24:25.450Z,63.60
2018-07-08T19:26:52.708Z,46.70
2018-07-08T19:29:20.089Z,46.90
2018-07-08T19:31:49.768Z,46.90
2018-07-08T19:34:17.129Z,47.40
2018-07-08T19:36:44.410Z,47.70
2018-07-08T19:39:11.707Z,49.20
2018-07-08T19:44:38.523Z,50.80
2018-07-08T19:47:06.947Z,48.40
2018-07-08T19:49:34.288Z,65.20
2018-07-08T19:52:05.554Z,51.90
2018-07-08T19:54:51.790Z,51.50
2018-07-08T19:57:32.488Z,50.80
2018-07-08T19:59:59.857Z,50.60
2018-07-08T20:02:35.201Z,50.40
2018-07-08T20:05:07.612Z,50.50
2018-07-08T20:07:48.923Z,51.00
2018-07-08T20:10:16.115Z,51.70
2018-07-08T20:12:57.020Z,52.20
2018-07-08T20:17:52.995Z,52.00
2018-07-08T20:20:32.358Z,72.60
2018-07-08T20:23:00.861Z,71.40
2018-07-08T20:25:28.155Z,72.30
2018-07-08T20:27:55.626Z,51.00
2018-07-08T20:30:25.151Z,52.60
2018-07-08T20:32:52.495Z,51.40
2018-07-08T20:35:19.828Z,51.50
2018-07-08T20:40:14.514Z,52.10
2018-07-08T20:43:01.857Z,52.50
2018-07-08T20:45:29.186Z,52.00
2018-07-08T20:47:57.859Z,53.60
2018-07-08T20:50:25.195Z,51.90
2018-07-08T20:52:52.589Z,51.80
2018-07-08T20:55:20.200Z,51.80
2018-07-08T20:57:48.242Z,52.10
2018-07-08T21:00:15.601Z,52.30
2018-07-08T21:02:47.152Z,53.00
2018-07-08T21:05:14.695Z,53.70
2018-07-08T21:07:42.156Z,53.80
2018-07-08T21:10:09.548Z,55.00
2018-07-08T21:12:36.864Z,56.80
2018-07-08T21:15:04.739Z,59.00
2018-07-08T21:17:32.144Z,59.10
2018-07-08T21:19:59.435Z,59.70
2018-07-08T21:22:26.719Z,60.30
2018-07-08T21:27:22.931Z,58.70
2018-07-08T21:29:50.598Z,58.60
2018-07-08T21:32:18.535Z,59.40
2018-07-08T21:34:45.895Z,60.00
2018-07-08T21:37:13.197Z,59.30
2018-07-08T21:39:40.495Z,89.40
2018-07-08T21:42:07.795Z,63.50
2018-07-08T21:44:35.313Z,64.20
2018-07-08T21:47:02.903Z,66.20
2018-07-08T21:49:36.023Z,67.70
2018-07-08T21:52:03.321Z,68.70
2018-07-08T21:54:30.709Z,70.20
2018-07-08T21:56:58.670Z,70.70
2018-07-08T21:59:25.958Z,70.90
2018-07-08T22:01:59.647Z,70.90
2018-07-08T22:07:00.138Z,71.00
2018-07-08T22:09:27.400Z,69.50
2018-07-08T22:11:54.750Z,67.30
2018-07-08T22:16:49.411Z,70.70
2018-07-08T22:19:16.743Z,68.90
2018-07-08T22:21:44.429Z,70.50
2018-07-08T22:24:11.743Z,71.50
2018-07-08T22:26:39.069Z,72.80
2018-07-08T22:29:06.458Z,73.80
2018-07-08T22:31:33.849Z,74.50
2018-07-08T22:34:01.216Z,73.90
2018-07-08T22:36:28.588Z,72.70
2018-07-08T22:38:55.849Z,73.60
2018-07-08T22:41:23.240Z,73.30
2018-07-08T22:43:50.502Z,71.50
2018-07-08T22:46:17.844Z,70.90
2018-07-08T22:51:12.375Z,69.50
2018-07-08T22:53:39.730Z,70.00
2018-07-08T22:56:07.039Z,69.80
2018-07-08T22:58:34.343Z,70.80
2018-07-08T23:02:12.675Z,73.50
2018-07-08T23:04:39.938Z,76.60
2018-07-08T23:07:07.350Z,71.00
2018-07-08T23:09:34.662Z,70.80
2018-07-08T23:14:29.268Z,71.10
2018-07-08T23:16:56.594Z,70.10
2018-07-08T23:19:23.910Z,70.80
2018-07-08T23:21:51.243Z,70.10
2018-07-08T23:24:18.675Z,70.40
2018-07-08T23:26:45.960Z,70.50
2018-07-08T23:29:13.255Z,72.20
2018-07-08T23:31:40.564Z,70.90
2018-07-08T23:34:07.829Z,70.70
2018-07-08T23:36:35.110Z,70.90
2018-07-08T23:39:03.240Z,70.90
2018-07-08T23:41:30.559Z,71.60
2018-07-08T23:43:57.835Z,73.00
2018-07-08T23:46:25.278Z,79.70
2018-07-08T23:51:19.784Z,83.30
2018-07-08T23:53:47.130Z,83.80
2018-07-08T23:56:14.414Z,80.50
2018-07-08T23:58:42.075Z,81.00
